NWS Home NWS Lubbock West Texas Mesonet North Sector Latest Conditions as of 1024 AM, Sat Apr 29, 2017

Latest   N   C   S   Daily Sum   3hrΔ   24hrΔ   Soil Data 
Site Map   24hr Precip   72hr Precip   Google Plot


Station Time of Last Temp Dew Pt. RH Wind Direction Wind Speed Wind Gust Max Wind Max Temp Min Temp Max RH Min RH Altimeter 1HR Rain Today's Rain Solar Rad Wind Chill
Aiken 3WSW  10:10 AM 39 38 94% NW3134 42 mph 359° @ 0209 AM 52 39 98 80 29.84" 0 0.06 68  
Amarillo 15NNW   10:10 AM 33 33 99% NW1826 36 mph 359° @ 0540 AM 45 33 100 92 29.95" 0.01 0.47 74 22
Amarillo 7SSE  10:10 AM 33 32 95% NW2230 46 mph 24° @ 0322 AM 46 33 96 90 29.91" 0.01 0.36 67 21
Amarillo 9NNE  10:10 AM 32 32 100% N1824 37 mph 14° @ 0637 AM 46 32 100 91 29.92" 0.02 0.21 84 20
Amherst 1NE  10:10 AM 37 34 92% N2938 40 mph 345° @ 0950 AM 49 36 94 79 29.85" 0 0.00 199  
Bootleg 11WNW  10:10 AM 31 30 94% N2427 34 mph 10° @ 0637 AM 44 31 96 92 29.94" 0 0.06 279 18
Boys Ranch 1WSW  10:10 AM 35 33 92% N1726 29 mph 26° @ 0434 AM 46 34 94 86 29.96" 0.04 0.51 97 25
Canadian 6E  10:10 AM 41 39 94% N1923 57 mph 28° @ 0430 AM 51 39 96 83 29.80" 0.02 0.65 24  
Caprock Canyons State Park  10:10 AM 42 40 91% NW1620 41 mph 352° @ 0604 AM 54 42 98 75 29.80" 0 0.67 138  
Childress 2NNE  10:05 AM 45 43 95% NW2228 48 mph 342° @ 0350 AM 67 45 98 62 29.74" 0 1.23 102  
Clarendon 2WSW  10:10 AM 41 38 91% N2128 46 mph 37° @ 0345 AM 52 40 92 77 29.79" 0.01 0.57 98  
Claude 12SW  10:10 AM 35 33 94% NW2839 45 mph 309° @ 0137 AM 47 35 97 86 29.85" 0.03 0.31 57 22
Dimmitt 2NE  10:10 AM 33 32 97% NW2533 40 mph 326° @ 1235 AM 45 33 98 90 29.89" 0.01 0.04 84 20
Dozier 3W  10:10 AM 43 41 93% N2029 59 mph 350° @ 0308 AM 55 42 96 75 29.77" 0 0.55 127  
Floydada 2NNE  10:10 AM 42 40 93% N2233 37 mph 9° @ 0835 AM 55 42 100 77 29.80" 0 0.30 99  
Friona 2NE  10:10 AM 32 31 100% N2227 35 mph 3° @ 0750 AM 45 32 100 91 29.92" 0.02 0.06 114 20
Goodlett 3W  10:10 AM 48 45 90% NW1924 52 mph 356° @ 0500 AM 68 47 96 64 29.71" 0 1.02 82  
Goodnight  10:10 AM 37 36 95% NW2632 47 mph 15° @ 0322 AM 49 37 99 86 29.84" 0 0.95 49  
Hart 3N  10:10 AM 34 33 95% NW2935 42 mph 8° @ 0240 AM 47 34 96 88 29.87" 0 0.00 46 20
Hereford 2NW  10:10 AM 33 33 100% N2432 35 mph 26° @ 0600 AM 45 32 100 85 29.91" 0.03 0.11 101 20
McLean 1E  10:05 AM 40 39 99% N2431 50 mph 359° @ 0315 AM 50 40 100 84 29.76" 0.03 0.69 120  
Memphis 1NE  10:10 AM 45 42 88% N2230 54 mph 287° @ 0255 AM 56 45 92 72 29.75" 0 0.31 170  
Muleshoe 2SSW  10:10 AM 36 34 93% N2432 33 mph 356° @ 1000 AM 49 35 96 79 29.88" 0 0.09 145  
Northfield 1S  10:10 AM 46 43 91% N1926 42 mph 4° @ 0420 AM 60 45 94 69 29.77" 0 0.67 156  
Odell 4ENE  10:10 AM 49 48 96% N1116 50 mph 26° @ 0609 AM 71 47 99 76 29.69" 0 0.79 57  
Olton 6S  10:10 AM 36 33 91% NW3138 47 mph 2° @ 0145 AM 49 36 93 84 29.86" 0 0.45 55  
Palo Duro Canyon SP Floor  10:10 AM 38 34 88% NW1621 34 mph 320° @ 0126 AM 51 38 93 80 29.90" 0.01 0.38 37  
Palo Duro Canyon State Park Rim  10:10 AM 35 32 91% NW1826 40 mph 328° @ 0122 AM 48 35 93 86 29.89" 0 0.12 50 24
Pampa 2E  10:10 AM 37 36 100% NW2229 52 mph 3° @ 0505 AM 47 36 100 93 29.81" 0.02 0.63 77  
Panhandle 1SSW  10:10 AM 34 33 96% NW2529 42 mph 3° @ 0128 AM 46 34 98 93 29.88" 0.02 0.55 72 21
Plainview 1S  10:10 AM 38 36 96% NW2028 46 mph 336° @ 0130 AM 50 38 97 87 29.85" 0 0.02 64  
Silverton 7ESE  10:10 AM 40 39 98% NW2230 42 mph 13° @ 0340 AM 51 40 98 78 29.82" 0 0.35 53  
Stinnett 1NNW  10:10 AM 33 32 96% NW2833 42 mph 28° @ 0332 AM 46 33 98 94 29.90" 0.01 0.43 78 19
Tulia 2ENE  10:10 AM 35 35 100% NW2835 41 mph 355° @ 0205 AM 48 35 100 93 29.86" 0.01 0.61 51 22
Turkey 2WSW  10:10 AM 43 42 97% NW2429 39 mph 329° @ 0245 AM 56 43 98 74 29.78" 0 0.22 189  
Umbarger 3NNE  10:10 AM 33 31 95% N2226 38 mph 338° @ 1251 AM 45 32 96 88 29.92" 0.01 0.16 82 21
Vigo Park  10:10 AM 36 34 94% NW2328 38 mph 329° @ 0136 AM 48 36 96 86 29.87" 0.02 0.77 29  

West Texas Mesonet Home   Site Map/Menu  NWS Lubbock Soil Data  Daily Summary Page  24hr Precip  72hr Precip  Google Plot